ナイロビ の空港の天気 - METARとTAF

ジョモ・ケニヤッタ国際空港 ( HKJK / NBO ) - ケニア ナイロビ
飛行場実況気象(Metar)
観測時間08/05 10:30 EAT (08/05 07:30 UTC)
風向・風速不定 2m/s
視程10km以上
天気現象
全天の4割程度の雲 雲底高度 640m
気温20℃
湿度64%
気圧1025hPa
METARHKJK 050730Z VRB03KT 9999 SCT021 20/13 Q1025 NOSIG
過去の天気等 Google飛行場航空写真 Wunderground天気予報

過去48時間のMETAR

飛行場予報(TAF)
発表時間: 8/05 08:00 EAT (8/05 05:00 UTC)
予報対象時間: 5日9時 EAT ~ 6日15時 EAT
風向・風速南南東 5m/s
視程10km以上
全天の4割程度の雲 雲底高度 520m
全天の8割程度の雲 雲底高度 2440m
5日10時 EAT ~ 5日13時 EAT に徐々に
風向・風速南南東 5m/s
全天の4割程度の雲 雲底高度 760m
全天の8割程度の雲 雲底高度 2440m
5日14時 EAT ~ 5日17時 EAT に徐々に
風向・風速東南東 5m/s
5日19時 EAT ~ 5日22時 EAT に徐々に
風向・風速東 3m/s
5日23時 EAT ~ 6日2時 EAT に徐々に
風向・風速不定 1m/s
視程10km以上
なし
6日3時 EAT ~ 6日6時 EAT に一時的に
視程10km以上
全天の4割程度の雲 雲底高度 180m
全天の8割程度の雲 雲底高度 520m
6日10時 EAT ~ 6日13時 EAT に徐々に
風向・風速南南東 5m/s
全天の4割程度の雲 雲底高度 760m
全天の8割程度の雲 雲底高度 2440m
TAF HKJK 050500Z 0506/0612 15010KT 9999 SCT017 BKN080
BECMG 0507/0510 15010KT SCT025 BKN080
BECMG 0511/0514 12010KT
BECMG 0516/0519 09005KT
BECMG 0520/0523 VRB02KT CAVOK
TEMPO 0600/0603 9999 SCT006 BKN017
BECMG 0607/0610 15010KT SCT025 BKN080